Time;durP1;ratioP1;P1;durP2;ratioP2;P2;SDS_P1;SDS_P2;PMS_P1;PMS_P2;Temp;Humidity;BMP_temperature;BMP_pressure;BME280_temperature;BME280_humidity;BME280_pressure;Samples;Min_cycle;Max_cycle;Signal;HPM_P1;HPM_P2
2021/05/16 00:01:31;;;;;;;4.28;1.92;;;;;;;13.99;62.06;98340.63;5141682;27;20036;-93
2021/05/16 00:03:57;;;;;;;4.10;1.80;;;;;;;13.97;61.99;98329.13;5141646;28;20071;-95
2021/05/16 00:06:24;;;;;;;3.75;1.63;;;;;;;13.97;62.20;98334.47;5141619;28;20035;-94
2021/05/16 00:08:50;;;;;;;2.22;1.80;;;;;;;13.97;62.20;98330.00;5142865;28;20054;-95
2021/05/16 00:11:16;;;;;;;3.75;1.63;;;;;;;13.92;62.18;98321.34;5142282;28;20058;-94
2021/05/16 00:13:42;;;;;;;3.40;1.90;;;;;;;14.03;62.78;98319.94;5135183;28;20071;-94
2021/05/16 00:16:08;;;;;;;4.38;2.17;;;;;;;13.98;61.91;98309.47;5139307;27;20020;-92
2021/05/16 00:18:35;;;;;;;3.55;2.10;;;;;;;13.99;63.25;98324.59;5141769;27;20032;-94
2021/05/16 00:21:02;;;;;;;6.55;1.98;;;;;;;14.03;62.58;98330.63;5129219;28;20128;-92
2021/05/16 00:23:28;;;;;;;4.22;1.80;;;;;;;13.95;62.77;98318.50;5125795;27;20065;-93
2021/05/16 00:25:54;;;;;;;5.30;2.40;;;;;;;14.04;62.84;98335.91;5141640;27;20107;-92
2021/05/16 00:28:20;;;;;;;3.30;1.90;;;;;;;13.89;63.12;98308.09;5141745;28;20098;-94
2021/05/16 00:30:46;;;;;;;2.50;1.80;;;;;;;13.92;62.83;98316.00;5140809;27;20035;-94
2021/05/16 00:33:12;;;;;;;3.45;1.98;;;;;;;13.89;63.14;98308.09;5141506;28;20480;-93
2021/05/16 00:35:39;;;;;;;5.35;2.13;;;;;;;14.00;63.24;98320.09;5120702;28;20071;-93
2021/05/16 00:38:05;;;;;;;5.70;2.20;;;;;;;13.86;63.06;98302.06;5128971;28;20043;-94
2021/05/16 00:40:33;;;;;;;4.40;1.95;;;;;;;13.88;62.90;98301.03;5127405;28;20489;-94
2021/05/16 00:42:59;;;;;;;3.35;1.90;;;;;;;13.96;63.71;98314.03;5127351;27;20220;-93
2021/05/16 00:45:26;;;;;;;3.53;1.98;;;;;;;13.69;63.82;98293.03;5126182;28;20485;-95
2021/05/16 00:47:53;;;;;;;6.22;2.33;;;;;;;13.71;64.33;98315.19;5126824;28;20051;-94
2021/05/16 00:50:22;;;;;;;2.95;1.92;;;;;;;13.55;64.37;98306.16;5127144;28;20043;-94
2021/05/16 00:52:49;;;;;;;4.75;2.30;;;;;;;13.41;64.74;98292.59;5127281;28;20535;-95
2021/05/16 00:55:17;;;;;;;2.80;1.80;;;;;;;13.37;64.62;98301.69;5125761;28;20035;-94
2021/05/16 00:57:43;;;;;;;3.72;1.85;;;;;;;13.47;64.81;98319.88;5124677;28;20044;-94
2021/05/16 01:00:13;;;;;;;3.90;2.10;;;;;;;13.33;65.13;98295.59;5125837;27;20051;-94
2021/05/16 01:02:39;;;;;;;5.00;2.30;;;;;;;13.16;65.31;98277.63;5125890;28;20460;-94
2021/05/16 01:05:07;;;;;;;4.55;2.10;;;;;;;13.12;65.79;98289.44;5124239;28;20071;-94
2021/05/16 01:07:35;;;;;;;4.30;1.83;;;;;;;13.06;65.70;98306.56;5122482;27;20036;-95
2021/05/16 01:10:03;;;;;;;4.82;2.03;;;;;;;13.06;65.63;98311.06;5106056;28;20043;-94
2021/05/16 01:12:33;;;;;;;5.75;1.98;;;;;;;13.06;65.79;98313.72;5125361;28;20044;-94
2021/05/16 01:15:03;;;;;;;4.18;2.00;;;;;;;13.10;66.39;98315.31;5112941;28;20058;-93
2021/05/16 01:17:29;;;;;;;3.33;2.00;;;;;;;13.17;66.74;98306.09;5121955;28;20077;-94
2021/05/16 01:19:55;;;;;;;3.92;1.92;;;;;;;13.03;66.18;98304.03;5125599;28;20043;-94
2021/05/16 01:22:22;;;;;;;4.50;1.98;;;;;;;13.03;66.25;98317.38;5125351;27;20054;-94
2021/05/16 01:24:48;;;;;;;5.70;2.15;;;;;;;13.10;66.59;98331.34;5126212;28;20073;-92
2021/05/16 01:27:16;;;;;;;4.20;2.20;;;;;;;12.84;67.91;98293.31;5125461;27;20040;-94
2021/05/16 01:29:42;;;;;;;7.05;2.00;;;;;;;12.78;66.81;98288.25;5125687;27;20055;-94
2021/05/16 01:35:10;;;;;;;3.40;1.90;;;;;;;12.79;68.02;98297.09;5121604;27;20359;-94
2021/05/16 01:37:36;;;;;;;4.68;1.98;;;;;;;12.81;68.11;98309.44;5122234;28;20058;-95
2021/05/16 01:40:03;;;;;;;4.80;2.00;;;;;;;12.67;68.41;98294.03;5120556;28;20051;-95
2021/05/16 01:42:30;;;;;;;3.95;2.08;;;;;;;12.67;68.37;98299.38;5120571;28;20032;-95
2021/05/16 01:45:02;;;;;;;3.80;2.00;;;;;;;12.83;67.11;98328.91;5123202;28;20378;-95
2021/05/16 01:47:28;;;;;;;6.10;2.20;;;;;;;12.87;66.24;98306.50;5102879;28;20134;-94
2021/05/16 01:50:04;;;;;;;4.38;1.80;;;;;;;12.99;65.79;98307.78;5101447;28;20044;-93
2021/05/16 01:52:32;;;;;;;5.07;2.67;;;;;;;13.10;66.48;98304.63;5101855;28;20474;-95
2021/05/16 01:54:58;;;;;;;5.05;2.13;;;;;;;13.12;66.78;98319.66;5121456;28;20103;-94
2021/05/16 01:57:24;;;;;;;4.88;2.50;;;;;;;13.15;66.66;98318.63;5120470;28;20040;-96
2021/05/16 01:59:51;;;;;;;4.90;2.05;;;;;;;13.21;66.57;98302.34;5122160;28;20107;-95
2021/05/16 02:02:17;;;;;;;4.22;2.03;;;;;;;13.41;66.92;98329.97;5121655;28;20040;-95
2021/05/16 02:04:45;;;;;;;6.68;2.25;;;;;;;13.35;65.81;98315.94;5121629;28;20508;-94
2021/05/16 02:07:12;;;;;;;6.70;2.05;;;;;;;13.34;65.59;98303.56;5121068;28;20058;-95
2021/05/16 02:09:40;;;;;;;3.85;1.80;;;;;;;13.39;65.39;98316.69;5120383;28;20389;-93
2021/05/16 02:12:07;;;;;;;5.03;2.07;;;;;;;13.40;65.52;98317.56;5121851;28;20454;-94
2021/05/16 02:14:33;;;;;;;9.80;2.35;;;;;;;13.44;64.94;98324.50;5121297;28;20071;-95
2021/05/16 02:17:02;;;;;;;6.03;2.35;;;;;;;13.56;66.09;98338.16;5119303;28;20042;-94
2021/05/16 02:19:28;;;;;;;8.80;2.20;;;;;;;13.49;66.20;98322.50;5118840;28;20105;-94
2021/05/16 02:21:54;;;;;;;5.63;2.10;;;;;;;13.47;65.61;98314.53;5119904;28;20101;-94
2021/05/16 02:24:21;;;;;;;4.15;2.00;;;;;;;13.48;65.57;98304.72;5119637;28;20043;-93
2021/05/16 02:26:48;;;;;;;6.80;2.10;;;;;;;13.51;65.26;98317.91;5119042;28;20044;-93
2021/05/16 02:29:15;;;;;;;5.30;2.10;;;;;;;13.45;66.04;98307.53;5119252;28;20051;-95
2021/05/16 02:31:41;;;;;;;5.07;1.75;;;;;;;13.51;66.55;98309.91;5119636;28;20051;-95
2021/05/16 02:34:08;;;;;;;5.03;1.80;;;;;;;13.48;66.39;98310.06;5120141;28;20051;-95
2021/05/16 02:36:34;;;;;;;4.22;1.90;;;;;;;13.45;65.42;98302.19;5120402;28;20074;-96
2021/05/16 02:39:03;;;;;;;3.92;1.92;;;;;;;13.47;65.60;98297.66;5121031;28;20107;-96
2021/05/16 02:41:29;;;;;;;4.90;2.03;;;;;;;13.54;65.75;98307.09;5119661;28;20044;-95
2021/05/16 02:43:56;;;;;;;4.43;1.90;;;;;;;13.49;65.77;98307.31;5120831;28;20508;-95
2021/05/16 02:46:22;;;;;;;9.45;3.00;;;;;;;13.52;65.58;98314.31;5109089;28;20552;-95
2021/05/16 02:48:48;;;;;;;5.47;2.15;;;;;;;13.53;65.79;98324.94;5107415;28;20032;-96
2021/05/16 02:51:14;;;;;;;5.90;2.22;;;;;;;13.55;65.52;98316.84;5108664;28;20048;-96
2021/05/16 02:53:40;;;;;;;4.38;1.95;;;;;;;13.52;65.53;98327.69;5108235;28;20032;-95
2021/05/16 02:56:06;;;;;;;5.43;2.10;;;;;;;13.54;65.64;98332.00;5106587;28;20048;-95
2021/05/16 02:58:32;;;;;;;4.90;2.10;;;;;;;13.55;65.44;98331.09;5107600;28;20043;-96
2021/05/16 03:00:59;;;;;;;4.82;2.00;;;;;;;13.58;65.27;98340.75;5107812;28;20040;-95
2021/05/16 03:03:25;;;;;;;7.95;2.78;;;;;;;13.72;65.72;98354.31;5107831;28;20104;-95
2021/05/16 03:05:51;;;;;;;6.97;1.92;;;;;;;13.59;65.54;98337.13;5108488;28;20048;-95
2021/05/16 03:08:17;;;;;;;4.22;1.83;;;;;;;13.58;65.44;98314.03;5107721;28;20099;-94
2021/05/16 03:10:44;;;;;;;6.68;2.22;;;;;;;13.54;66.12;98313.31;5107731;28;20036;-93
2021/05/16 03:13:10;;;;;;;4.05;1.85;;;;;;;13.52;65.91;98307.16;5107123;28;20118;-93
2021/05/16 03:15:36;;;;;;;4.47;1.85;;;;;;;13.50;65.94;98316.19;5107324;28;20063;-96
2021/05/16 03:18:03;;;;;;;6.13;2.15;;;;;;;13.49;66.31;98328.69;5106364;28;20036;-93
2021/05/16 03:20:29;;;;;;;4.80;1.88;;;;;;;13.51;66.38;98318.81;5105425;28;20047;-93
2021/05/16 03:22:55;;;;;;;9.00;2.30;;;;;;;13.61;66.64;98326.38;5107603;28;20036;-93
2021/05/16 03:25:21;;;;;;;5.28;2.10;;;;;;;13.47;66.81;98303.00;5106545;28;20055;-94
2021/05/16 03:27:48;;;;;;;5.35;1.92;;;;;;;13.42;66.90;98295.16;5105083;28;20047;-93
2021/05/16 03:30:14;;;;;;;5.50;2.00;;;;;;;13.43;67.09;98296.06;5105661;28;20255;-93
2021/05/16 03:32:41;;;;;;;7.18;2.10;;;;;;;13.33;67.43;98285.78;5105593;28;20067;-95
2021/05/16 03:35:11;;;;;;;5.53;1.95;;;;;;;13.34;67.83;98287.53;5106595;28;20047;-95
2021/05/16 03:37:37;;;;;;;5.28;1.90;;;;;;;13.25;67.87;98273.69;5105008;28;20551;-95
2021/05/16 03:40:04;;;;;;;6.75;2.00;;;;;;;13.21;68.13;98294.34;5105805;28;20040;-93
2021/05/16 03:42:31;;;;;;;5.30;1.98;;;;;;;13.14;68.80;98290.19;5104547;28;20040;-93
2021/05/16 03:44:57;;;;;;;4.20;1.80;;;;;;;13.11;68.73;98287.69;5105291;28;20040;-94
2021/05/16 03:47:24;;;;;;;7.78;2.17;;;;;;;13.12;68.34;98292.09;5105304;28;20051;-94
2021/05/16 03:49:50;;;;;;;6.20;2.25;;;;;;;13.18;67.97;98294.47;5104068;28;20103;-94
2021/05/16 03:52:19;;;;;;;9.10;2.08;;;;;;;13.15;68.50;98291.94;5104647;28;20063;-94
2021/05/16 03:54:46;;;;;;;6.05;2.20;;;;;;;13.21;67.98;98285.47;5109169;28;20093;-94
2021/05/16 03:57:13;;;;;;;4.18;2.08;;;;;;;13.15;68.33;98282.13;5103585;28;20071;-96
2021/05/16 03:59:41;;;;;;;5.63;2.00;;;;;;;13.18;67.99;98283.78;5104971;28;20032;-94
2021/05/16 04:02:07;;;;;;;5.13;1.92;;;;;;;13.19;68.00;98280.19;5104193;28;20443;-93
2021/05/16 04:04:33;;;;;;;5.00;1.92;;;;;;;13.22;68.15;98276.50;5103398;28;20043;-94
2021/05/16 04:06:59;;;;;;;5.57;2.00;;;;;;;13.26;68.39;98278.09;5104361;28;20040;-93
2021/05/16 04:09:26;;;;;;;7.05;2.20;;;;;;;13.21;68.08;98274.78;5103566;28;20043;-92
2021/05/16 04:11:52;;;;;;;6.28;2.17;;;;;;;13.32;67.81;98288.53;5104847;28;20532;-94
2021/05/16 04:14:20;;;;;;;6.40;2.20;;;;;;;13.26;68.03;98284.31;5102819;28;20524;-93
2021/05/16 04:16:46;;;;;;;7.13;1.80;;;;;;;13.39;67.81;98315.84;5102873;28;20048;-94
2021/05/16 04:19:12;;;;;;;6.65;2.20;;;;;;;13.34;66.95;98308.03;5103523;28;20059;-94
2021/05/16 04:21:38;;;;;;;6.30;2.10;;;;;;;13.32;67.12;98329.47;5103202;28;20044;-94
2021/05/16 04:24:05;;;;;;;6.07;2.13;;;;;;;13.35;66.96;98333.78;5103014;28;20051;-94
2021/05/16 04:26:32;;;;;;;6.95;2.42;;;;;;;13.35;66.95;98337.31;5102476;28;20101;-94
2021/05/16 04:28:58;;;;;;;4.85;1.77;;;;;;;13.44;67.14;98352.06;5103468;28;20083;-93
2021/05/16 04:31:24;;;;;;;6.90;2.00;;;;;;;13.46;67.35;98343.97;5102651;28;20048;-93
2021/05/16 04:33:50;;;;;;;4.38;2.00;;;;;;;13.43;67.59;98336.13;5102549;28;20090;-93
2021/05/16 04:36:16;;;;;;;5.88;2.00;;;;;;;13.41;66.93;98328.16;5102356;28;20044;-94
2021/05/16 04:38:45;;;;;;;6.85;2.10;;;;;;;13.46;66.91;98331.50;5104676;28;20126;-95
2021/05/16 04:41:11;;;;;;;7.05;2.10;;;;;;;13.55;66.85;98341.78;5104973;28;20032;-94
2021/05/16 04:43:38;;;;;;;5.15;1.95;;;;;;;13.59;66.63;98330.94;5103667;28;20086;-94
2021/05/16 04:46:04;;;;;;;6.82;2.42;;;;;;;13.59;66.35;98309.56;5103993;28;20072;-95
2021/05/16 04:48:30;;;;;;;8.52;3.17;;;;;;;13.72;66.17;98313.38;5103554;28;20069;-94
2021/05/16 04:50:56;;;;;;;7.38;2.15;;;;;;;13.83;66.28;98315.56;5102889;28;20078;-94
2021/05/16 04:53:27;;;;;;;9.05;2.50;;;;;;;13.91;65.26;98313.38;5102610;28;20044;-95
2021/05/16 04:55:53;;;;;;;5.28;2.13;;;;;;;13.96;65.40;98322.03;5102655;28;20040;-95
2021/05/16 04:58:19;;;;;;;9.45;2.92;;;;;;;14.11;65.06;98345.38;5102664;28;20164;-93
2021/05/16 05:00:46;;;;;;;6.93;2.03;;;;;;;14.11;64.66;98348.03;5103620;28;20606;-96
2021/05/16 05:03:12;;;;;;;6.40;2.10;;;;;;;14.13;64.75;98337.28;5104321;28;20469;-95
2021/05/16 05:05:38;;;;;;;6.43;1.95;;;;;;;14.12;65.12;98333.75;5103821;28;20034;-93
2021/05/16 05:08:05;;;;;;;7.00;2.35;;;;;;;14.14;64.73;98329.19;5105202;28;20075;-94
2021/05/16 05:10:31;;;;;;;6.80;2.58;;;;;;;14.16;64.30;98334.44;5103654;28;20445;-95
2021/05/16 05:12:57;;;;;;;4.22;1.90;;;;;;;14.29;64.36;98345.41;5103803;28;20107;-95
2021/05/16 05:15:23;;;;;;;7.43;2.40;;;;;;;14.36;64.33;98334.34;5102959;28;20097;-94
2021/05/16 05:17:49;;;;;;;9.73;2.20;;;;;;;14.35;63.67;98315.69;5102038;28;20131;-95
2021/05/16 05:20:16;;;;;;;6.97;2.03;;;;;;;14.43;63.77;98326.03;5103119;28;20044;-95
2021/05/16 05:22:42;;;;;;;7.40;2.00;;;;;;;14.37;63.83;98327.19;5103487;28;20048;-92
2021/05/16 05:25:09;;;;;;;3.90;2.00;;;;;;;14.49;64.06;98353.34;5104303;28;20042;-94
2021/05/16 05:27:35;;;;;;;8.63;2.35;;;;;;;14.39;64.04;98339.53;5103094;28;20048;-95
2021/05/16 05:30:01;;;;;;;10.10;2.40;;;;;;;14.57;63.78;98331.56;5104440;28;20063;-94
2021/05/16 05:32:27;;;;;;;7.88;2.08;;;;;;;14.81;62.94;98340.16;5104552;28;20037;-94
2021/05/16 05:34:54;;;;;;;10.20;2.20;;;;;;;14.93;62.60;98331.50;5104068;28;20134;-94
2021/05/16 05:37:20;;;;;;;7.53;1.95;;;;;;;15.13;61.94;98335.81;5103489;28;20040;-94
2021/05/16 05:39:46;;;;;;;5.95;1.98;;;;;;;15.43;61.38;98336.97;5101946;28;20058;-96
2021/05/16 05:42:12;;;;;;;8.23;2.30;;;;;;;15.30;61.14;98344.78;5103011;28;20075;-93
2021/05/16 05:44:40;;;;;;;7.03;2.05;;;;;;;15.50;61.03;98341.88;5103010;28;20051;-93
2021/05/16 05:47:06;;;;;;;4.90;1.95;;;;;;;15.29;61.29;98343.03;5103181;28;20044;-94
2021/05/16 05:49:32;;;;;;;6.55;2.00;;;;;;;15.31;61.43;98341.13;5103471;28;20048;-95
2021/05/16 05:52:00;;;;;;;4.55;1.95;;;;;;;15.06;62.31;98342.44;5102316;28;20073;-96
2021/05/16 05:54:27;;;;;;;10.13;2.65;;;;;;;15.13;61.79;98338.50;5106433;28;20066;-95
2021/05/16 05:56:53;;;;;;;4.75;1.88;;;;;;;15.12;62.63;98347.47;5106112;28;20041;-95
2021/05/16 05:59:19;;;;;;;7.88;2.58;;;;;;;15.07;62.50;98340.63;5106265;28;20074;-94
2021/05/16 06:01:45;;;;;;;7.97;2.22;;;;;;;15.21;62.06;98340.78;5104904;28;20048;-94
2021/05/16 06:04:11;;;;;;;7.15;2.17;;;;;;;15.20;62.49;98333.66;5103375;28;20040;-94
2021/05/16 06:06:37;;;;;;;6.63;2.13;;;;;;;15.12;62.57;98335.91;5101907;28;20046;-96
2021/05/16 06:09:08;;;;;;;9.20;2.22;;;;;;;15.13;62.54;98333.13;5103803;28;20080;-96
2021/05/16 06:11:35;;;;;;;4.65;2.00;;;;;;;15.25;62.07;98338.81;5105053;28;20112;-95
2021/05/16 06:14:02;;;;;;;6.43;2.30;;;;;;;15.18;62.53;98343.63;5102022;28;20036;-94
2021/05/16 06:16:29;;;;;;;7.32;2.35;;;;;;;15.25;62.34;98353.06;5104700;28;20039;-95
2021/05/16 06:19:01;;;;;;;7.82;2.78;;;;;;;15.28;62.25;98357.38;5103964;28;20051;-96
2021/05/16 06:21:27;;;;;;;4.40;2.10;;;;;;;15.18;62.61;98352.53;5105888;28;20390;-93
2021/05/16 06:27:00;;;;;;;9.52;2.53;;;;;;;15.18;62.84;98359.69;5163958;27;20127;-95
2021/05/16 06:29:26;;;;;;;5.57;2.30;;;;;;;15.48;62.89;98388.47;5162301;27;20086;-96
2021/05/16 06:31:52;;;;;;;7.10;2.70;;;;;;;15.56;61.75;98367.50;5164240;27;20067;-95
2021/05/16 06:34:20;;;;;;;6.78;2.42;;;;;;;15.64;62.08;98367.09;5165648;27;20380;-96
2021/05/16 06:36:47;;;;;;;6.82;2.75;;;;;;;15.99;61.39;98397.38;5165003;27;20043;-95
2021/05/16 06:39:13;;;;;;;9.25;3.38;;;;;;;16.28;60.30;98366.22;5163826;27;20035;-96
2021/05/16 06:41:42;;;;;;;8.88;2.63;;;;;;;16.52;59.51;98361.25;5163790;27;20039;-96
2021/05/16 06:44:09;;;;;;;5.90;2.20;;;;;;;17.12;58.22;98378.41;5163648;27;20198;-95
2021/05/16 06:46:35;;;;;;;9.15;2.25;;;;;;;16.88;58.29;98370.84;5162895;27;20103;-95
2021/05/16 06:49:01;;;;;;;8.20;2.45;;;;;;;16.95;57.82;98377.59;5162076;27;20066;-96
2021/05/16 06:51:30;;;;;;;8.30;2.72;;;;;;;17.08;57.48;98377.72;5162260;27;20039;-96
2021/05/16 06:53:56;;;;;;;8.80;2.97;;;;;;;16.99;57.43;98371.06;5158867;27;20035;-96
2021/05/16 06:56:22;;;;;;;6.18;2.33;;;;;;;16.75;58.59;98380.56;5162773;27;20070;-96
2021/05/16 06:58:48;;;;;;;8.23;2.55;;;;;;;16.55;58.88;98384.41;5163076;27;20038;-94
2021/05/16 07:01:15;;;;;;;6.05;2.50;;;;;;;16.48;59.77;98393.75;5162305;27;20043;-96
2021/05/16 07:03:44;;;;;;;9.05;3.20;;;;;;;16.30;60.44;98384.94;5162992;27;20043;-95
2021/05/16 07:06:15;;;;;;;7.15;2.15;;;;;;;16.27;60.72;98402.06;5146864;27;20082;-96
2021/05/16 07:08:41;;;;;;;8.98;2.47;;;;;;;16.29;60.67;98389.44;5141750;27;20065;-95
2021/05/16 07:11:12;;;;;;;9.23;2.38;;;;;;;16.36;60.28;98417.66;5162759;27;20068;-95
2021/05/16 07:13:42;;;;;;;7.50;2.17;;;;;;;15.98;60.50;98396.53;5166834;27;20051;-95
2021/05/16 07:16:11;;;;;;;8.57;2.25;;;;;;;15.93;61.36;98398.56;5168479;27;20383;-96
2021/05/16 07:18:42;;;;;;;7.22;2.38;;;;;;;16.04;61.73;98430.16;5166244;27;20102;-95
2021/05/16 07:21:12;;;;;;;8.77;2.45;;;;;;;15.80;61.40;98403.72;5167209;27;20100;-95
2021/05/16 07:27:13;;;;;;;8.55;2.25;;;;;;;15.59;62.50;98405.75;5140126;28;20050;-95
2021/05/16 07:30:05;;;;;;;7.40;2.65;;;;;;;15.52;62.94;98440.97;5146054;27;20062;-96
2021/05/16 07:32:57;;;;;;;6.60;2.22;;;;;;;15.32;63.23;98431.28;5148694;28;20047;-96
2021/05/16 07:36:29;;;;;;;6.95;2.42;;;;;;;15.19;63.63;98407.81;5151486;27;20070;-96
2021/05/16 07:39:03;;;;;;;8.15;2.10;;;;;;;15.14;63.61;98403.66;5131595;28;20039;-95
2021/05/16 07:41:47;;;;;;;8.23;2.67;;;;;;;15.11;63.64;98398.44;5131154;28;20047;-96
2021/05/16 07:51:17;;;;;;;6.53;2.35;;;;;;;15.25;64.17;98390.56;5130039;28;20080;-94
2021/05/16 07:53:47;;;;;;;7.95;2.17;;;;;;;15.21;64.92;98386.31;5128833;28;20438;-95
2021/05/16 07:56:16;;;;;;;7.85;2.20;;;;;;;15.21;64.62;98394.34;5127408;28;20092;-95
2021/05/16 07:58:45;;;;;;;11.35;2.97;;;;;;;15.16;65.59;98383.88;5127606;28;20055;-96
2021/05/16 08:01:16;;;;;;;6.07;2.80;;;;;;;15.16;66.06;98380.34;5130056;28;20378;-95
2021/05/16 08:08:33;;;;;;;9.77;2.60;;;;;;;15.27;65.73;98423.50;4952731;29;20063;-96
2021/05/16 08:11:25;;;;;;;10.35;3.10;;;;;;;15.08;66.25;98380.72;4977582;28;20046;-96
2021/05/16 08:13:52;;;;;;;8.82;3.67;;;;;;;15.16;66.00;98380.34;5010032;28;20042;-95
2021/05/16 08:17:08;;;;;;;8.57;2.95;;;;;;;15.34;64.83;98414.19;5010209;28;20196;-96
2021/05/16 08:19:51;;;;;;;11.25;4.95;;;;;;;15.15;64.53;98386.63;5009913;28;20046;-96
2021/05/16 08:22:23;;;;;;;9.20;3.40;;;;;;;15.22;65.34;98387.16;5006884;28;20093;-95
2021/05/16 08:24:52;;;;;;;8.98;3.55;;;;;;;15.34;64.94;98398.13;5007072;28;20066;-95
2021/05/16 08:27:24;;;;;;;9.52;4.40;;;;;;;15.52;65.60;98430.25;5004434;28;20048;-95
2021/05/16 08:33:22;;;;;;;8.98;3.08;;;;;;;15.61;66.32;98414.56;5001228;28;20060;-96
2021/05/16 08:35:48;;;;;;;7.30;3.00;;;;;;;15.59;66.61;98410.22;5002042;28;20049;-95
2021/05/16 08:38:15;;;;;;;6.43;2.70;;;;;;;15.75;65.44;98421.03;5093847;28;20044;-95
2021/05/16 08:40:47;;;;;;;9.77;3.03;;;;;;;15.82;65.39;98411.69;5122101;28;20043;-95
2021/05/16 08:43:14;;;;;;;7.50;3.03;;;;;;;15.91;64.80;98419.22;5124600;28;20039;-95
2021/05/16 08:45:42;;;;;;;8.63;2.53;;;;;;;16.01;64.21;98433.88;5121421;28;20101;-94
2021/05/16 08:48:09;;;;;;;8.60;2.72;;;;;;;15.87;64.40;98406.94;5116238;28;20032;-93
2021/05/16 08:50:35;;;;;;;7.18;2.13;;;;;;;15.89;64.84;98396.13;5121204;28;20039;-95
2021/05/16 08:53:01;;;;;;;6.88;2.28;;;;;;;16.05;64.20;98407.78;5124469;28;20043;-95
2021/05/16 08:55:32;;;;;;;8.60;2.17;;;;;;;16.04;64.19;98395.28;5123227;28;20125;-95
2021/05/16 08:57:58;;;;;;;7.60;2.20;;;;;;;16.01;63.28;98395.47;5122890;28;20039;-95
2021/05/16 09:00:27;;;;;;;6.50;2.20;;;;;;;16.02;64.61;98397.19;5122411;28;20051;-95
2021/05/16 09:03:08;;;;;;;7.32;2.67;;;;;;;16.10;65.53;98399.47;5121415;28;20394;-93
2021/05/16 09:05:38;;;;;;;6.57;2.60;;;;;;;16.19;65.73;98423.09;5121064;28;20474;-95
2021/05/16 09:08:07;;;;;;;11.27;2.60;;;;;;;16.07;66.23;98408.56;5122482;28;20489;-94
2021/05/16 09:10:34;;;;;;;7.38;2.88;;;;;;;16.13;66.70;98400.13;5121525;28;20054;-95
2021/05/16 09:16:35;;;;;;;6.68;2.85;;;;;;;16.36;66.53;98427.53;5111448;27;20353;-94
2021/05/16 09:19:06;;;;;;;8.25;2.83;;;;;;;16.31;66.32;98397.38;5115723;28;20040;-94
2021/05/16 09:21:38;;;;;;;7.07;2.92;;;;;;;16.22;66.36;98399.66;5098819;28;20067;-96
2021/05/16 09:24:11;;;;;;;6.85;2.75;;;;;;;16.25;66.31;98397.75;5110727;28;21530;-94
2021/05/16 09:26:49;;;;;;;7.53;2.60;;;;;;;16.28;65.90;98409.16;5102271;28;20076;-94
2021/05/16 09:29:23;;;;;;;6.88;2.60;;;;;;;16.19;67.00;98405.16;5095799;28;20108;-93
2021/05/16 09:31:51;;;;;;;6.05;2.70;;;;;;;16.20;66.80;98412.28;5095696;28;20071;-94
2021/05/16 09:34:17;;;;;;;10.68;2.50;;;;;;;15.97;65.46;98405.50;5112288;28;20617;-94
2021/05/16 09:36:46;;;;;;;6.32;3.47;;;;;;;15.81;66.26;98396.56;5117759;28;20043;-96
2021/05/16 09:39:23;;;;;;;11.73;3.38;;;;;;;15.72;65.78;98402.41;5117076;28;20044;-95
2021/05/16 09:42:01;;;;;;;7.90;2.85;;;;;;;15.79;66.86;98402.00;5118098;28;20048;-94
2021/05/16 09:44:38;;;;;;;7.72;3.08;;;;;;;15.94;65.81;98436.97;5117969;28;20040;-94
2021/05/16 09:47:17;;;;;;;7.30;2.70;;;;;;;15.91;65.83;98416.56;5118777;28;20044;-94
2021/05/16 09:49:45;;;;;;;7.43;3.15;;;;;;;15.99;65.74;98414.31;5116687;28;20065;-94
2021/05/16 09:52:19;;;;;;;9.20;3.30;;;;;;;16.05;64.23;98410.44;5120812;28;20044;-94
2021/05/16 09:54:56;;;;;;;12.02;3.00;;;;;;;16.18;64.30;98411.50;5122320;28;20499;-96
2021/05/16 09:57:26;;;;;;;4.55;2.42;;;;;;;16.00;64.17;98408.03;5120389;28;20048;-94
2021/05/16 09:59:58;;;;;;;9.70;3.30;;;;;;;15.95;64.94;98414.59;5118687;28;20040;-96
2021/05/16 10:02:31;;;;;;;6.40;2.60;;;;;;;15.91;64.54;98415.69;5118469;28;20392;-96
2021/05/16 10:05:00;;;;;;;6.88;2.58;;;;;;;16.10;65.18;98429.81;5116321;28;20140;-95
2021/05/16 10:07:27;;;;;;;6.70;2.60;;;;;;;16.04;66.08;98415.88;5113463;28;20040;-93
2021/05/16 10:09:55;;;;;;;9.25;2.92;;;;;;;16.11;64.80;98428.91;5107000;28;20130;-94
2021/05/16 10:12:22;;;;;;;6.78;2.70;;;;;;;16.29;65.03;98450.28;5105756;28;20048;-88
2021/05/16 10:14:52;;;;;;;8.00;3.13;;;;;;;16.39;65.67;98435.38;5104430;28;20040;-94
2021/05/16 10:17:22;;;;;;;6.55;2.63;;;;;;;16.56;64.95;98456.78;5104903;28;20047;-93
2021/05/16 10:19:50;;;;;;;6.70;2.92;;;;;;;16.48;65.85;98425.94;5106735;28;20082;-92
2021/05/16 10:22:17;;;;;;;8.30;2.93;;;;;;;16.53;65.90;98429.25;5097671;28;20040;-93
2021/05/16 10:24:45;;;;;;;5.95;2.60;;;;;;;16.61;66.30;98435.94;5103949;28;20050;-93
2021/05/16 10:30:27;;;;;;;6.47;2.95;;;;;;;16.73;66.04;98441.53;5127039;27;20709;-93
2021/05/16 10:32:53;;;;;;;6.32;2.72;;;;;;;16.62;66.11;98439.47;5110832;28;20051;-93
2021/05/16 10:35:21;;;;;;;7.28;2.72;;;;;;;16.72;66.15;98446.06;5110535;28;20676;-92
2021/05/16 10:37:50;;;;;;;6.90;3.15;;;;;;;16.62;66.40;98440.31;5108944;28;20047;-93
2021/05/16 10:40:25;;;;;;;8.68;3.00;;;;;;;16.31;64.71;98445.69;5110642;28;20040;-94
2021/05/16 10:42:53;;;;;;;8.93;2.80;;;;;;;16.25;67.10;98449.59;5110481;28;20554;-93
2021/05/16 10:45:23;;;;;;;8.55;3.40;;;;;;;15.75;68.55;98459.41;5108644;28;20572;-94
2021/05/16 10:48:29;;;;;;;7.70;2.85;;;;;;;15.94;68.70;98453.06;5109516;28;20397;-92
2021/05/16 10:50:57;;;;;;;7.57;3.17;;;;;;;16.12;68.72;98452.06;5047004;28;20124;-91
2021/05/16 10:53:40;;;;;;;8.43;3.17;;;;;;;16.30;69.44;98452.00;5048210;28;20045;-92
2021/05/16 10:56:18;;;;;;;7.68;3.10;;;;;;;16.46;68.17;98438.59;5048652;28;20072;-94
2021/05/16 10:58:56;;;;;;;9.90;3.22;;;;;;;16.38;68.13;98433.66;5051248;28;20159;-92
2021/05/16 11:01:38;;;;;;;6.20;3.13;;;;;;;16.25;68.79;98448.72;5048050;28;20071;-92
2021/05/16 11:04:09;;;;;;;5.53;3.03;;;;;;;16.34;69.30;98449.06;5048917;28;20601;-92
2021/05/16 11:06:54;;;;;;;7.80;3.17;;;;;;;16.49;69.72;98449.16;5045778;28;20048;-89
2021/05/16 11:09:27;;;;;;;6.90;3.30;;;;;;;16.57;69.59;98436.19;5043463;28;20041;-93
2021/05/16 11:11:55;;;;;;;6.50;3.10;;;;;;;16.41;68.29;98453.13;5041847;28;20037;-92
2021/05/16 11:14:25;;;;;;;10.18;3.40;;;;;;;16.28;69.23;98457.44;5046214;28;20064;-94
2021/05/16 11:16:55;;;;;;;8.30;3.30;;;;;;;16.20;70.24;98460.56;5047625;28;20065;-92
2021/05/16 11:19:23;;;;;;;9.45;4.07;;;;;;;16.00;70.84;98439.31;5048584;28;20057;-93
2021/05/16 11:21:50;;;;;;;7.13;3.57;;;;;;;15.98;69.69;98451.94;5083720;28;20075;-92
2021/05/16 11:24:31;;;;;;;5.65;3.38;;;;;;;15.80;70.04;98459.16;5109693;28;20284;-92
2021/05/16 11:27:00;;;;;;;8.60;3.50;;;;;;;15.67;72.14;98464.28;5109760;28;20081;-93
2021/05/16 11:29:25;;;;;;;;;;;;;;;15.70;73.20;98461.47;5110479;28;20367;-93
2021/05/16 11:32:04;;;;;;;6.65;3.53;;;;;;;15.62;73.61;98450.28;5109623;28;19920;-93
2021/05/16 11:34:32;;;;;;;8.98;3.55;;;;;;;15.55;73.05;98435.47;5110331;28;20027;-94
2021/05/16 11:37:14;;;;;;;6.20;3.25;;;;;;;15.57;72.78;98423.72;5110616;28;20040;-93
2021/05/16 11:39:40;;;;;;;7.65;3.38;;;;;;;15.75;72.29;98458.56;5107489;28;20123;-92
2021/05/16 11:42:06;;;;;;;8.57;4.00;;;;;;;15.66;73.83;98450.94;5096919;28;20126;-95
2021/05/16 11:44:34;;;;;;;9.63;4.32;;;;;;;15.70;74.40;98442.69;5098906;28;20146;-93
2021/05/16 11:47:00;;;;;;;10.20;3.80;;;;;;;15.80;73.82;98446.63;5098476;28;20563;-93
2021/05/16 11:49:30;;;;;;;8.30;4.07;;;;;;;15.85;74.36;98464.28;5099367;28;20132;-95
2021/05/16 11:51:57;;;;;;;9.05;3.40;;;;;;;15.65;71.41;98451.91;5096938;28;20098;-93
2021/05/16 11:54:25;;;;;;;8.48;3.55;;;;;;;15.54;73.53;98466.72;5099206;28;20479;-93
2021/05/16 11:56:51;;;;;;;10.13;3.75;;;;;;;15.46;73.57;98441.28;5096837;28;20051;-94
2021/05/16 11:59:17;;;;;;;8.90;3.67;;;;;;;15.38;73.83;98449.75;5097224;28;20145;-94
2021/05/16 12:04:43;;;;;;;10.10;4.32;;;;;;;15.33;75.10;98451.78;5185443;27;20866;-94
2021/05/16 12:07:09;;;;;;;9.68;4.00;;;;;;;15.29;74.95;98440.38;5153377;27;20058;-93
2021/05/16 12:09:40;;;;;;;9.32;4.22;;;;;;;15.33;75.04;98441.06;5149654;27;20400;-92
2021/05/16 12:12:17;;;;;;;9.63;4.40;;;;;;;15.27;75.47;98418.16;5139720;27;20073;-93
2021/05/16 12:14:44;;;;;;;11.25;3.90;;;;;;;15.27;74.74;98426.19;5147968;27;20050;-89
2021/05/16 12:17:10;;;;;;;7.22;4.07;;;;;;;15.31;75.09;98435.78;5149030;27;20043;-94